createdAt,value
2023-12-08T00:01:27.782Z,98882.25
2023-12-08T00:03:55.996Z,98899.03
2023-12-08T00:06:24.226Z,98902.28
2023-12-08T00:08:52.421Z,98899.66
2023-12-08T00:11:20.691Z,98897.22
2023-12-08T00:13:48.911Z,98889.94
2023-12-08T00:16:18.476Z,98899.25
2023-12-08T00:18:46.754Z,98899.25
2023-12-08T00:21:15.119Z,98889.53
2023-12-08T00:23:43.569Z,98900.06
2023-12-08T00:26:13.570Z,98903.06
2023-12-08T00:28:41.685Z,98890.91
2023-12-08T00:31:10.679Z,98903.06
2023-12-08T00:33:40.337Z,98903.06
2023-12-08T00:36:14.047Z,98898.81
2023-12-08T00:38:42.253Z,98908.13
2023-12-08T00:41:11.350Z,98907.91
2023-12-08T00:43:39.749Z,98911.34
2023-12-08T00:46:10.638Z,98919.03
2023-12-08T00:48:40.289Z,98915.22
2023-12-08T00:51:08.997Z,98916.00
2023-12-08T00:53:37.232Z,98917.84
2023-12-08T00:56:05.788Z,98921.47
2023-12-08T00:58:33.866Z,98924.31
2023-12-08T01:01:02.118Z,98920.06
2023-12-08T01:03:30.390Z,98922.47
2023-12-08T01:06:00.582Z,98929.22
2023-12-08T01:08:29.210Z,98918.91
2023-12-08T01:10:57.465Z,98917.06
2023-12-08T01:13:25.615Z,98905.31
2023-12-08T01:15:53.728Z,98904.91
2023-12-08T01:18:23.027Z,98905.13
2023-12-08T01:20:51.573Z,98905.94
2023-12-08T01:23:21.403Z,98906.16
2023-12-08T01:25:49.627Z,98910.81
2023-12-08T01:28:18.039Z,98906.56
2023-12-08T01:30:46.272Z,98907.97
2023-12-08T01:33:14.520Z,98906.19
2023-12-08T01:35:43.334Z,98905.16
2023-12-08T01:38:14.859Z,98912.66
2023-12-08T01:40:46.820Z,98906.56
2023-12-08T01:43:15.229Z,98909.19
2023-12-08T01:45:43.369Z,98916.69
2023-12-08T01:48:12.885Z,98919.94
2023-12-08T01:50:41.945Z,98911.25
2023-12-08T01:53:10.100Z,98913.06
2023-12-08T01:55:38.299Z,98910.22
2023-12-08T01:58:09.128Z,98914.69
2023-12-08T02:00:37.983Z,98914.69
2023-12-08T02:03:06.464Z,98899.13
2023-12-08T02:05:36.472Z,98914.09
2023-12-08T02:08:04.761Z,98910.66
2023-12-08T02:10:33.072Z,98913.47
2023-12-08T02:13:01.518Z,98916.91
2023-12-08T02:15:31.035Z,98924.00
2023-12-08T02:17:59.915Z,98922.38
2023-12-08T02:20:28.295Z,98937.16
2023-12-08T02:22:56.583Z,98936.53
2023-12-08T02:25:26.242Z,98921.56
2023-12-08T02:27:56.466Z,98925.22
2023-12-08T02:30:34.149Z,98926.63
2023-12-08T02:33:12.400Z,98926.63
2023-12-08T02:35:43.272Z,98930.88
2023-12-08T02:38:15.515Z,98926.63
2023-12-08T02:40:45.266Z,98939.78
2023-12-08T02:43:13.443Z,98926.63
2023-12-08T02:45:44.741Z,98928.44
2023-12-08T02:48:23.769Z,98919.75
2023-12-08T02:50:54.854Z,98927.66
2023-12-08T02:53:23.160Z,98929.84
2023-12-08T02:55:56.080Z,98933.09
2023-12-08T02:58:24.432Z,98930.66
2023-12-08T03:00:52.757Z,98932.25
2023-12-08T03:03:37.657Z,98935.91
2023-12-08T03:06:06.192Z,98935.09
2023-12-08T03:08:34.662Z,98938.75
2023-12-08T03:11:28.021Z,98938.75
2023-12-08T03:13:56.142Z,98945.63
2023-12-08T03:16:29.279Z,98954.31
2023-12-08T03:19:06.145Z,98953.31
2023-12-08T03:21:37.765Z,98955.31
2023-12-08T03:24:06.153Z,98961.59
2023-12-08T03:26:38.733Z,98954.31
2023-12-08T03:29:07.093Z,98951.69
2023-12-08T03:31:35.382Z,98953.09
2023-12-08T03:34:03.699Z,98949.44
2023-12-08T03:36:31.976Z,98959.16
2023-12-08T03:39:09.280Z,98962.81
2023-12-08T03:41:39.454Z,98965.44
2023-12-08T03:44:07.715Z,98968.06
2023-12-08T03:46:41.201Z,98968.47
2023-12-08T03:49:27.588Z,98966.44
2023-12-08T03:51:56.295Z,98967.25
2023-12-08T03:54:27.509Z,98969.69
2023-12-08T03:56:57.136Z,98968.47
2023-12-08T03:59:31.933Z,98968.06
2023-12-08T04:02:02.465Z,98957.91
2023-12-08T04:04:54.617Z,98954.28
2023-12-08T04:07:23.298Z,98962.78
2023-12-08T04:10:19.366Z,98957.31
2023-12-08T04:13:09.859Z,98950.84
2023-12-08T04:15:38.129Z,98960.75
2023-12-08T04:18:08.106Z,98972.06
2023-12-08T04:20:44.656Z,98964.00
2023-12-08T04:23:21.399Z,98962.38
2023-12-08T04:25:59.492Z,98957.13
2023-12-08T04:28:37.467Z,98952.44
2023-12-08T04:31:22.130Z,98965.19
2023-12-08T04:33:50.683Z,98963.97
2023-12-08T04:36:21.542Z,98962.94
2023-12-08T04:38:56.256Z,98977.91
2023-12-08T04:41:36.725Z,98959.50
2023-12-08T04:44:26.829Z,98972.66
2023-12-08T04:46:57.744Z,98979.75
2023-12-08T04:49:28.654Z,98994.31
2023-12-08T04:52:00.104Z,98979.56
2023-12-08T04:54:40.782Z,98975.72
2023-12-08T04:57:09.482Z,98968.41
2023-12-08T04:59:40.100Z,98971.25
2023-12-08T05:02:11.059Z,98974.09
2023-12-08T05:04:51.192Z,98969.44
2023-12-08T05:07:20.337Z,98979.34
2023-12-08T05:09:48.609Z,98981.78
2023-12-08T05:12:21.563Z,98976.72
2023-12-08T05:14:56.461Z,98987.66
2023-12-08T05:17:28.076Z,98996.78
2023-12-08T05:20:09.018Z,98994.31
2023-12-08T05:22:46.072Z,98994.13
2023-12-08T05:25:23.281Z,98989.88
2023-12-08T05:28:06.881Z,98999.22
2023-12-08T05:31:17.957Z,99000.81
2023-12-08T05:33:51.057Z,99002.03
2023-12-08T05:36:26.871Z,98996.78
2023-12-08T05:38:57.683Z,99000.38
2023-12-08T05:41:54.424Z,99015.38
2023-12-08T05:44:32.005Z,98995.97
2023-12-08T05:47:01.549Z,98999.22
2023-12-08T05:52:41.587Z,98995.97
2023-12-08T05:55:13.151Z,98997.97
2023-12-08T05:57:41.236Z,98991.31
2023-12-08T06:00:19.574Z,98996.16
2023-12-08T06:03:04.885Z,98995.97
2023-12-08T06:06:04.675Z,98992.31
2023-12-08T06:08:39.126Z,98991.88
2023-12-08T06:11:10.892Z,98995.53
2023-12-08T06:14:17.478Z,99000.59
2023-12-08T06:17:17.976Z,99011.94
2023-12-08T06:20:07.649Z,99005.66
2023-12-08T06:22:37.738Z,99018.00
2023-12-08T06:28:37.644Z,99016.19
2023-12-08T06:31:09.455Z,99014.13
2023-12-08T06:33:41.041Z,99024.28
2023-12-08T06:36:18.325Z,99018.59
2023-12-08T06:39:06.284Z,99022.66
2023-12-08T06:41:58.657Z,99022.84
2023-12-08T06:44:26.879Z,99018.19
2023-12-08T06:47:04.784Z,99023.47
2023-12-08T06:49:39.012Z,99021.03
2023-12-08T06:52:07.472Z,99027.50
2023-12-08T06:54:37.048Z,99022.03
2023-12-08T06:57:07.650Z,99023.84
2023-12-08T06:59:58.629Z,99032.38
2023-12-08T07:02:41.248Z,99036.00
2023-12-08T07:05:10.507Z,99031.94
2023-12-08T07:07:40.673Z,99037.81
2023-12-08T07:10:11.920Z,99036.81
2023-12-08T07:12:49.877Z,99034.75
2023-12-08T07:15:21.765Z,99027.09
2023-12-08T07:18:15.138Z,99038.19
2023-12-08T07:20:52.910Z,99033.56
2023-12-08T07:23:21.637Z,99033.34
2023-12-08T07:25:51.571Z,99029.50
2023-12-08T07:28:23.364Z,99019.78
2023-12-08T07:30:51.756Z,99036.78
2023-12-08T07:33:20.003Z,99025.44
2023-12-08T07:35:48.626Z,99022.59
2023-12-08T07:38:20.092Z,99022.59
2023-12-08T07:40:48.149Z,99017.72
2023-12-08T07:43:32.998Z,99025.03
2023-12-08T07:46:10.531Z,99037.00
2023-12-08T07:49:05.387Z,99039.63
2023-12-08T07:51:34.339Z,99028.88
2023-12-08T07:54:06.060Z,99046.09
2023-12-08T07:56:35.702Z,99057.44
2023-12-08T07:59:05.321Z,99048.91
2023-12-08T08:01:38.259Z,99062.09
2023-12-08T08:04:07.287Z,99055.00
2023-12-08T08:06:38.973Z,99061.72
2023-12-08T08:09:10.017Z,99066.75
2023-12-08T08:11:38.630Z,99052.38
2023-12-08T08:17:59.911Z,99054.00
2023-12-08T08:20:29.381Z,99056.63
2023-12-08T08:22:59.217Z,99067.16
2023-12-08T08:25:28.457Z,99071.41
2023-12-08T08:27:56.722Z,99065.13
2023-12-08T08:30:27.846Z,99073.22
2023-12-08T08:32:56.277Z,99067.16
2023-12-08T08:55:24.626Z,99083.94
2023-12-08T08:57:54.413Z,99104.03
2023-12-08T09:00:49.288Z,99100.16
2023-12-08T09:03:17.617Z,99101.34
2023-12-08T09:05:46.371Z,99098.94
2023-12-08T09:08:14.984Z,99108.44
2023-12-08T09:10:48.732Z,99106.22
2023-12-08T09:13:20.993Z,99105.63
2023-12-08T09:15:53.519Z,99116.16
2023-12-08T09:18:21.993Z,99102.38
2023-12-08T09:20:50.576Z,99109.09
2023-12-08T09:23:18.902Z,99097.50
2023-12-08T09:25:48.641Z,99108.47
2023-12-08T09:28:23.485Z,99110.69
2023-12-08T09:30:54.224Z,99098.13
2023-12-08T09:33:25.347Z,99098.72
2023-12-08T09:35:53.740Z,99105.00
2023-12-08T09:38:30.739Z,99107.88
2023-12-08T09:41:05.915Z,99099.16
2023-12-08T09:43:41.776Z,99103.41
2023-12-08T09:46:13.079Z,99099.97
2023-12-08T09:48:43.583Z,99094.31
2023-12-08T09:51:13.405Z,99094.91
2023-12-08T09:53:42.969Z,99098.72
2023-12-08T09:56:16.628Z,99088.22
2023-12-08T09:58:46.647Z,99079.69
2023-12-08T10:01:18.569Z,99088.81
2023-12-08T10:03:49.492Z,99080.09
2023-12-08T10:06:18.034Z,99097.53
2023-12-08T10:08:47.061Z,99093.88
2023-12-08T10:11:17.138Z,99091.44
2023-12-08T10:13:45.550Z,99102.00
2023-12-08T10:16:14.126Z,99100.75
2023-12-08T10:18:42.375Z,99104.41
2023-12-08T10:21:18.280Z,99113.53
2023-12-08T10:24:00.425Z,99102.38
2023-12-08T10:26:38.089Z,99109.69
2023-12-08T10:29:06.598Z,99108.25
2023-12-08T10:31:34.854Z,99106.63
2023-12-08T10:34:06.940Z,99112.91
2023-12-08T10:36:35.690Z,99129.09
2023-12-08T10:39:11.326Z,99140.44
2023-12-08T10:41:50.464Z,99136.41
2023-12-08T10:44:26.413Z,99149.38
2023-12-08T10:47:00.349Z,99143.69
2023-12-08T10:49:30.104Z,99153.59
2023-12-08T10:52:04.382Z,99150.97
2023-12-08T10:54:35.326Z,99136.41
2023-12-08T10:57:21.644Z,99149.75
2023-12-08T10:59:55.672Z,99142.50
2023-12-08T11:02:36.194Z,99144.09
2023-12-08T11:05:20.797Z,99128.50
2023-12-08T11:07:57.064Z,99135.59
2023-12-08T11:10:32.088Z,99151.56
2023-12-08T11:13:10.558Z,99144.91
2023-12-08T11:15:48.754Z,99140.84
2023-12-08T11:18:25.562Z,99145.09
2023-12-08T11:20:56.734Z,99151.75
2023-12-08T11:23:35.266Z,99151.38
2023-12-08T11:26:10.567Z,99157.88
2023-12-08T11:28:50.384Z,99160.69
2023-12-08T11:31:26.783Z,99146.50
2023-12-08T11:34:10.539Z,99144.09
2023-12-08T11:36:45.463Z,99148.13
2023-12-08T11:39:42.944Z,99155.81
2023-12-08T11:42:18.315Z,99132.75
2023-12-08T11:44:49.074Z,99137.56
2023-12-08T11:47:20.541Z,99131.06
2023-12-08T11:49:50.865Z,99127.63
2023-12-08T11:52:21.555Z,99128.22
2023-12-08T11:55:22.908Z,99128.22
2023-12-08T11:58:10.848Z,99134.69
2023-12-08T12:00:50.719Z,99120.91
2023-12-08T12:03:19.565Z,99130.59
2023-12-08T12:05:55.561Z,99125.50
2023-12-08T12:08:28.386Z,99120.88
2023-12-08T12:11:04.473Z,99139.91
2023-12-08T12:13:45.428Z,99138.69
2023-12-08T12:16:17.931Z,99123.22
2023-12-08T12:18:46.365Z,99109.59
2023-12-08T12:21:16.656Z,99115.44
2023-12-08T12:23:47.786Z,99135.75
2023-12-08T12:26:22.035Z,99135.78
2023-12-08T12:28:55.405Z,99139.84
2023-12-08T12:31:30.308Z,99129.91
2023-12-08T12:33:59.306Z,99141.91
2023-12-08T12:36:31.298Z,99141.72
2023-12-08T12:38:59.954Z,99140.28
2023-12-08T12:41:30.724Z,99140.47
2023-12-08T12:44:03.217Z,99138.19
2023-12-08T12:46:45.289Z,99139.19
2023-12-08T12:49:19.967Z,99141.19
2023-12-08T12:51:48.137Z,99151.16
2023-12-08T12:54:32.367Z,99154.81
2023-12-08T12:57:01.276Z,99149.72
2023-12-08T12:59:42.072Z,99143.06
2023-12-08T13:02:23.347Z,99156.03
2023-12-08T13:04:51.864Z,99157.25
2023-12-08T13:07:28.073Z,99162.09
2023-12-08T13:09:56.567Z,99164.16
2023-12-08T13:12:24.752Z,99159.47
2023-12-08T13:14:53.132Z,99158.66
2023-12-08T13:17:23.451Z,99153.59
2023-12-08T13:20:01.563Z,99159.28
2023-12-08T13:22:50.497Z,99171.06
2023-12-08T13:25:18.730Z,99163.34
2023-12-08T13:27:47.154Z,99177.94
2023-12-08T13:30:20.474Z,99167.00
2023-12-08T13:32:57.087Z,99176.94
2023-12-08T13:35:34.672Z,99168.81
2023-12-08T13:38:08.371Z,99167.38
2023-12-08T13:40:36.770Z,99175.47
2023-12-08T13:43:05.029Z,99172.63
2023-12-08T13:45:37.991Z,99160.47
2023-12-08T13:48:07.954Z,99160.06
2023-12-08T13:50:50.511Z,99164.31
2023-12-08T13:53:57.101Z,99168.78
2023-12-08T13:56:49.389Z,99165.34
2023-12-08T13:59:32.793Z,99176.09
2023-12-08T14:02:06.855Z,99156.47
2023-12-08T14:04:45.338Z,99172.09
2023-12-08T14:07:25.745Z,99180.41
2023-12-08T14:09:54.398Z,99189.34
2023-12-08T14:12:36.564Z,99187.31
2023-12-08T14:15:05.867Z,99176.97
2023-12-08T14:17:34.682Z,99180.22
2023-12-08T14:20:04.608Z,99183.25
2023-12-08T14:22:33.112Z,99182.69
2023-12-08T14:25:02.224Z,99185.28
2023-12-08T14:27:34.664Z,99180.81
2023-12-08T14:30:08.655Z,99180.41
2023-12-08T14:32:42.905Z,99170.09
2023-12-08T14:35:26.782Z,99174.72
2023-12-08T14:37:59.247Z,99178.56
2023-12-08T14:40:40.384Z,99168.03
2023-12-08T14:43:45.567Z,99159.28
2023-12-08T14:46:21.188Z,99161.50
2023-12-08T14:48:53.717Z,99166.16
2023-12-08T14:51:27.738Z,99151.53
2023-12-08T14:53:58.822Z,99155.56
2023-12-08T14:56:29.005Z,99161.22
2023-12-08T14:59:01.042Z,99167.75
2023-12-08T15:01:29.611Z,99174.25
2023-12-08T15:04:11.919Z,99177.50
2023-12-08T15:06:41.648Z,99178.31
2023-12-08T15:09:10.333Z,99195.75
2023-12-08T15:11:38.620Z,99186.25
2023-12-08T15:14:13.497Z,99173.09
2023-12-08T15:16:45.690Z,99161.34
2023-12-08T15:19:14.698Z,99182.41
2023-12-08T15:21:46.493Z,99175.13
2023-12-08T15:24:23.311Z,99178.19
2023-12-08T15:26:54.546Z,99184.06
2023-12-08T15:29:41.531Z,99189.34
2023-12-08T15:32:12.885Z,99189.78
2023-12-08T15:34:41.772Z,99185.72
2023-12-08T15:37:17.218Z,99183.28
2023-12-08T15:39:47.744Z,99186.16
2023-12-08T15:42:16.342Z,99176.59
2023-12-08T15:44:45.438Z,99192.19
2023-12-08T15:47:14.338Z,99192.22
2023-12-08T15:49:43.401Z,99196.91
2023-12-08T15:52:13.453Z,99200.75
2023-12-08T15:54:54.444Z,99204.38
2023-12-08T15:57:22.664Z,99201.75
2023-12-08T15:59:51.168Z,99206.81
2023-12-08T16:02:20.095Z,99208.88
2023-12-08T16:04:55.693Z,99221.59
2023-12-08T16:08:00.853Z,99211.50
2023-12-08T16:10:29.274Z,99223.06
2023-12-08T16:13:00.200Z,99216.97
2023-12-08T16:15:28.512Z,99206.03
2023-12-08T16:17:59.772Z,99211.72
2023-12-08T16:20:39.338Z,99226.72
2023-12-08T16:23:09.371Z,99202.41
2023-12-08T16:25:41.473Z,99197.94
2023-12-08T16:28:09.716Z,99205.66
2023-12-08T16:30:41.457Z,99206.25
2023-12-08T16:33:36.730Z,99211.31
2023-12-08T16:36:14.640Z,99208.06
2023-12-08T16:38:53.297Z,99188.84
2023-12-08T16:41:38.469Z,99198.34
2023-12-08T16:44:16.194Z,99207.66
2023-12-08T16:46:46.857Z,99218.81
2023-12-08T16:49:19.022Z,99210.50
2023-12-08T16:52:01.235Z,99206.47
2023-12-08T16:54:31.170Z,99211.13
2023-12-08T16:57:02.429Z,99206.03
2023-12-08T16:59:36.735Z,99211.31
2023-12-08T17:02:17.004Z,99219.41
2023-12-08T17:04:54.395Z,99209.69
2023-12-08T17:07:31.324Z,99210.50
2023-12-08T17:10:10.579Z,99223.66
2023-12-08T17:12:41.893Z,99222.66
2023-12-08T17:15:21.525Z,99228.75
2023-12-08T17:17:57.006Z,99236.66
2023-12-08T17:20:26.040Z,99238.44
2023-12-08T17:23:05.945Z,99245.75
2023-12-08T17:25:42.045Z,99257.91
2023-12-08T17:28:10.545Z,99239.47
2023-12-08T17:30:55.828Z,99242.91
2023-12-08T17:33:27.197Z,99261.56
2023-12-08T17:35:55.515Z,99258.72
2023-12-08T17:38:23.780Z,99261.56
2023-12-08T17:40:53.993Z,99267.25
2023-12-08T17:43:22.842Z,99271.69
2023-12-08T17:45:53.668Z,99268.88
2023-12-08T17:48:22.065Z,99275.97
2023-12-08T17:50:50.934Z,99272.53
2023-12-08T17:53:22.896Z,99274.53
2023-12-08T17:56:13.948Z,99280.81
2023-12-08T17:58:44.072Z,99281.03
2023-12-08T18:01:25.155Z,99289.53
2023-12-08T18:04:20.835Z,99292.38
2023-12-08T18:06:58.481Z,99301.50
2023-12-08T18:09:26.932Z,99307.56
2023-12-08T18:14:47.322Z,99306.53
2023-12-08T18:17:18.998Z,99313.00
2023-12-08T18:19:53.122Z,99310.97
2023-12-08T18:22:23.344Z,99310.59
2023-12-08T18:24:56.262Z,99315.66
2023-12-08T18:27:38.110Z,99316.06
2023-12-08T18:30:28.640Z,99301.88
2023-12-08T18:32:57.852Z,99319.91
2023-12-08T18:35:37.487Z,99331.22
2023-12-08T18:38:13.757Z,99311.19
2023-12-08T18:40:42.131Z,99300.44
2023-12-08T18:43:12.048Z,99313.81
2023-12-08T18:45:50.163Z,99320.88
2023-12-08T18:48:18.604Z,99308.16
2023-12-08T18:50:47.701Z,99307.50
2023-12-08T18:53:16.359Z,99302.63
2023-12-08T18:55:51.592Z,99315.59
2023-12-08T18:58:45.974Z,99302.59
2023-12-08T19:01:17.278Z,99309.91
2023-12-08T19:03:47.480Z,99308.25
2023-12-08T19:06:19.100Z,99306.25
2023-12-08T19:09:05.604Z,99303.19
2023-12-08T19:11:41.584Z,99299.34
2023-12-08T19:14:46.146Z,99311.69
2023-12-08T19:17:15.991Z,99312.88
2023-12-08T19:19:53.496Z,99299.72
2023-12-08T19:22:27.621Z,99306.22
2023-12-08T19:25:07.907Z,99295.91
2023-12-08T19:27:36.358Z,99307.25
2023-12-08T19:30:17.417Z,99306.44
2023-12-08T19:32:52.576Z,99312.72
2023-12-08T19:35:24.817Z,99334.78
2023-12-08T19:37:57.297Z,99323.63
2023-12-08T19:41:16.066Z,99333.94
2023-12-08T19:43:51.260Z,99319.00
2023-12-08T19:46:26.624Z,99327.47
2023-12-08T19:49:13.559Z,99333.97
2023-12-08T19:51:51.785Z,99321.03
2023-12-08T19:54:41.045Z,99336.81
2023-12-08T19:57:59.092Z,99332.78
2023-12-08T20:00:42.100Z,99338.47
2023-12-08T20:03:12.065Z,99344.53
2023-12-08T20:05:40.623Z,99331.59
2023-12-08T20:08:41.480Z,99340.91
2023-12-08T20:11:11.717Z,99341.09
2023-12-08T20:13:43.886Z,99326.75
2023-12-08T20:16:12.308Z,99336.09
2023-12-08T20:18:42.741Z,99338.50
2023-12-08T20:21:11.039Z,99349.84
2023-12-08T20:23:39.241Z,99351.88
2023-12-08T20:26:09.522Z,99344.19
2023-12-08T20:28:39.021Z,99346.63
2023-12-08T20:31:27.571Z,99351.50
2023-12-08T20:34:03.996Z,99348.84
2023-12-08T20:36:45.163Z,99350.69
2023-12-08T20:39:21.148Z,99348.44
2023-12-08T20:41:50.155Z,99345.41
2023-12-08T20:44:46.368Z,99350.09
2023-12-08T20:47:17.983Z,99346.41
2023-12-08T20:50:03.406Z,99351.50
2023-12-08T20:53:40.416Z,99353.09
2023-12-08T20:55:56.499Z,99351.50
2023-12-08T20:58:41.977Z,99344.38
2023-12-08T21:01:10.798Z,99359.97
2023-12-08T21:03:41.009Z,99378.81
2023-12-08T21:06:21.641Z,99390.53
2023-12-08T21:08:53.118Z,99370.50
2023-12-08T21:14:07.157Z,99383.69
2023-12-08T21:16:36.305Z,99376.97
2023-12-08T21:19:27.882Z,99383.22
2023-12-08T21:22:16.262Z,99375.13
2023-12-08T21:24:52.916Z,99362.97
2023-12-08T21:27:24.157Z,99346.72
2023-12-08T21:29:53.533Z,99348.53
2023-12-08T21:32:24.756Z,99350.78
2023-12-08T21:35:02.214Z,99344.88
2023-12-08T21:37:33.978Z,99339.19
2023-12-08T21:40:02.109Z,99338.19
2023-12-08T21:42:45.182Z,99336.78
2023-12-08T21:45:37.979Z,99329.84
2023-12-08T21:48:18.488Z,99320.34
2023-12-08T21:50:47.199Z,99332.69
2023-12-08T21:53:19.759Z,99319.16
2023-12-08T21:55:47.979Z,99321.38
2023-12-08T21:58:16.231Z,99334.34
2023-12-08T22:00:59.458Z,99341.44
2023-12-08T22:03:29.086Z,99339.78
2023-12-08T22:05:58.433Z,99340.41
2023-12-08T22:08:28.720Z,99339.41
2023-12-08T22:10:57.469Z,99336.78
2023-12-08T22:13:29.243Z,99323.41
2023-12-08T22:15:58.071Z,99334.31
2023-12-08T22:18:26.420Z,99344.00
2023-12-08T22:20:54.987Z,99344.22
2023-12-08T22:23:33.249Z,99355.13
2023-12-08T22:26:25.898Z,99339.94
2023-12-08T22:29:21.909Z,99335.91
2023-12-08T22:31:52.672Z,99348.03
2023-12-08T22:34:22.564Z,99329.25
2023-12-08T22:36:51.536Z,99315.47
2023-12-08T22:39:21.333Z,99322.53
2023-12-08T22:41:57.362Z,99319.72
2023-12-08T22:44:28.850Z,99338.75
2023-12-08T22:47:03.679Z,99332.28
2023-12-08T22:49:41.144Z,99315.50
2023-12-08T22:52:13.332Z,99314.66
2023-12-08T22:54:43.771Z,99299.06
2023-12-08T22:57:23.066Z,99310.19
2023-12-08T23:00:01.335Z,99303.13
2023-12-08T23:02:29.788Z,99297.06
2023-12-08T23:05:05.095Z,99293.81
2023-12-08T23:07:57.633Z,99306.34
2023-12-08T23:10:27.396Z,99268.91
2023-12-08T23:13:10.907Z,99280.47
2023-12-08T23:15:39.407Z,99263.66
2023-12-08T23:18:15.766Z,99265.47
2023-12-08T23:20:47.094Z,99259.84
2023-12-08T23:23:18.840Z,99258.44
2023-12-08T23:26:01.186Z,99258.81
2023-12-08T23:28:46.003Z,99245.06
2023-12-08T23:31:14.929Z,99245.06
2023-12-08T23:33:43.397Z,99263.69
2023-12-08T23:36:12.403Z,99252.53
2023-12-08T23:38:46.479Z,99260.25
2023-12-08T23:41:16.129Z,99263.50
2023-12-08T23:43:44.495Z,99245.06
2023-12-08T23:46:12.894Z,99244.69
2023-12-08T23:48:48.079Z,99255.00
2023-12-08T23:51:22.238Z,99251.56
2023-12-08T23:53:54.517Z,99249.34
2023-12-08T23:56:24.292Z,99245.31
2023-12-08T23:58:53.323Z,99240.84
